Terminal Aerodrome Forecast
Issued by NWS New Orleans/Baton Rouge, LA

Home | Current Version | Previous Version | Text Only | Print | Product List | Glossary On
Versions: 1 2 3 4 5 6 7 8 9 10 11 12 13
000
FTUS44 KLIX 030520
TAFBTR
TAF
KBTR 030520Z 0306/0406 VRB03KT P6SM BKN250
     FM031500 14006KT P6SM BKN045 PROB30 0318/0322 4SM -TSRA
      BKN030CB
     FM040100 VRB04KT P6SM SCT110 BKN250=

USA.gov is the U.S. government's official web portal to all federal, state and local government web resources and services.